Elkhorn City, Kentucky
Current Conditions -  °F | °C
As of 1:55 AM on Friday 28 Nov 2014 (Local Time) from KPBX Reporting Station
Light Snow Light Snow  
Wind Chill: 21°   Ceiling: 1100
Heat Index: 28°   Visibility: 7mi
Dew Point: 25°   Wind: 7mph
Humidity: 88%   Direction: 280°W
Pressure: 30.33"   Gusts: NA
Location:  37.3°N, 82.35°W
Report Text: KPBX 280655Z AUTO 28006KT 7SM -SN BKN011 BKN018 OVC027 M02/M04 A3033 RMK AO2 T10231040
Loading
Personal Weather Stations






























Interactive Weather Map New forecast layout! Learn more

10-Day Weather Forecast

Advertisements
Track Severe Weather on mobile